Time;durP1;ratioP1;P1;durP2;ratioP2;P2;SDS_P1;SDS_P2;PMS_P1;PMS_P2;Temp;Humidity;BMP_temperature;BMP_pressure;BME280_temperature;BME280_humidity;BME280_pressure;Samples;Min_cycle;Max_cycle;Signal;HPM_P1;HPM_P2
2023/05/13 00:02:01;;;;;;;22.10;10.90;;;;;;;12.32;42.52;100849.93;103570;1253;97649;-66
2023/05/13 00:04:28;;;;;;;19.80;10.70;;;;;;;12.31;42.70;100851.36;103527;1256;107810;-66
2023/05/13 00:06:55;;;;;;;18.90;11.10;;;;;;;12.31;42.63;100851.70;103600;1253;97802;-66
2023/05/13 00:09:22;;;;;;;17.70;10.40;;;;;;;12.31;42.61;100852.05;103387;1256;138156;-66
2023/05/13 00:11:49;;;;;;;23.40;11.50;;;;;;;12.31;42.80;100853.10;103510;1254;107370;-66
2023/05/13 00:14:16;;;;;;;16.70;10.60;;;;;;;12.32;42.85;100854.64;103539;1253;138415;-66
2023/05/13 00:16:44;;;;;;;21.40;10.10;;;;;;;12.31;42.89;100852.04;103978;1252;106820;-66
2023/05/13 00:19:11;;;;;;;20.40;10.90;;;;;;;12.31;43.02;100854.65;103465;1253;97678;-66
2023/05/13 00:21:38;;;;;;;20.50;10.60;;;;;;;12.30;42.92;100851.38;103434;1253;138121;-66
2023/05/13 00:24:07;;;;;;;18.30;10.20;;;;;;;12.28;42.95;100847.59;103460;1256;108529;-66
2023/05/13 00:26:34;;;;;;;14.50;9.80;;;;;;;12.25;43.04;100843.67;103798;1253;138931;-66
2023/05/13 00:29:01;;;;;;;18.10;9.40;;;;;;;12.23;42.97;100842.73;103387;1253;107982;-66
2023/05/13 00:31:28;;;;;;;15.50;9.60;;;;;;;12.21;42.96;100842.93;103401;1253;97890;-66
2023/05/13 00:33:56;;;;;;;17.90;9.60;;;;;;;12.20;42.91;100842.25;103329;1253;138067;-66
2023/05/13 00:36:23;;;;;;;19.10;9.80;;;;;;;12.21;42.93;100849.73;103429;1254;107851;-66
2023/05/13 00:38:50;;;;;;;16.80;9.90;;;;;;;12.22;42.85;100847.96;103203;1253;138151;-66
2023/05/13 00:41:17;;;;;;;17.40;9.70;;;;;;;12.23;42.93;100848.99;103390;1253;107348;-66
2023/05/13 00:43:44;;;;;;;17.30;10.20;;;;;;;12.23;43.08;100845.33;103427;1253;97827;-66
2023/05/13 00:46:11;;;;;;;18.40;10.70;;;;;;;12.23;43.15;100847.94;103366;1253;138313;-66
2023/05/13 00:48:41;;;;;;;21.60;10.80;;;;;;;12.21;43.26;100850.77;104822;1252;107069;-66
2023/05/13 00:51:08;;;;;;;20.50;10.50;;;;;;;12.20;43.51;100849.94;103427;1253;138355;-66
2023/05/13 00:53:37;;;;;;;16.20;9.70;;;;;;;12.17;43.47;100851.58;103388;1253;108364;-66
2023/05/13 00:56:05;;;;;;;21.60;10.10;;;;;;;12.15;43.53;100850.08;103667;1252;97810;-66
2023/05/13 00:58:32;;;;;;;18.60;9.80;;;;;;;12.13;43.71;100851.88;103873;1253;111602;-67
2023/05/13 01:01:16;;;;;;;16.50;10.60;;;;;;;12.11;43.70;100856.13;103498;1253;107875;-67
2023/05/13 01:03:50;;;;;;;15.90;10.10;;;;;;;12.08;43.84;100859.33;103937;1254;138826;-66
2023/05/13 01:06:22;;;;;;;18.00;10.60;;;;;;;12.06;43.92;100863.94;103368;1255;107666;-67
2023/05/13 01:09:03;;;;;;;17.00;10.10;;;;;;;12.04;43.90;100867.81;103277;1253;139215;-67
2023/05/13 01:11:36;;;;;;;13.70;9.80;;;;;;;12.06;43.86;100867.41;103447;1252;110695;-67
2023/05/13 01:14:11;;;;;;;19.00;10.20;;;;;;;12.05;43.88;100869.01;103316;1256;107319;-67
2023/05/13 01:16:49;;;;;;;21.20;10.10;;;;;;;12.07;43.95;100870.70;103525;1254;97870;-67
2023/05/13 01:19:35;;;;;;;17.20;9.60;;;;;;;12.08;43.99;100868.41;103303;1254;108979;-67
2023/05/13 01:22:02;;;;;;;21.60;9.90;;;;;;;12.08;44.01;100871.00;103187;1254;138104;-65
2023/05/13 01:24:29;;;;;;;16.20;9.40;;;;;;;12.08;43.86;100871.02;103306;1253;112430;-67
2023/05/13 01:26:57;;;;;;;21.60;9.60;;;;;;;12.08;43.91;100869.45;103228;1253;138241;-67
2023/05/13 01:29:24;;;;;;;15.50;8.80;;;;;;;12.09;43.97;100867.50;103899;1255;97829;-67
2023/05/13 01:31:53;;;;;;;15.60;9.60;;;;;;;12.10;43.93;100866.95;103712;1257;107441;-67
2023/05/13 01:34:22;;;;;;;18.30;9.60;;;;;;;12.10;43.99;100863.45;103248;1253;137955;-67
2023/05/13 01:36:50;;;;;;;21.60;11.00;;;;;;;12.10;44.09;100861.56;103384;1253;112171;-66
2023/05/13 01:39:20;;;;;;;20.40;10.20;;;;;;;12.09;44.21;100862.28;103279;1254;138163;-66
2023/05/13 01:41:48;;;;;;;19.10;10.50;;;;;;;12.06;44.48;100865.70;103479;1256;100117;-66
2023/05/13 01:44:16;;;;;;;20.00;10.50;;;;;;;11.99;44.69;100864.98;103624;1254;138309;-67
2023/05/13 01:46:44;;;;;;;20.90;10.90;;;;;;;11.94;44.87;100863.05;103498;1257;97843;-66
2023/05/13 01:49:14;;;;;;;19.10;10.80;;;;;;;11.90;45.11;100866.48;104515;1254;109961;-66
2023/05/13 01:51:41;;;;;;;19.60;10.40;;;;;;;11.85;45.38;100864.17;103811;1254;138350;-67
2023/05/13 01:54:08;;;;;;;24.20;11.50;;;;;;;11.82;45.55;100866.70;103927;1254;98395;-65
2023/05/13 01:56:37;;;;;;;21.40;11.50;;;;;;;11.77;45.62;100870.61;103683;1255;138172;-66
2023/05/13 01:59:04;;;;;;;17.50;11.50;;;;;;;11.76;45.68;100874.67;103973;1253;96726;-65
2023/05/13 02:01:31;;;;;;;21.60;11.40;;;;;;;11.73;45.71;100873.52;103431;1253;113318;-65
2023/05/13 02:03:59;;;;;;;16.40;11.50;;;;;;;11.73;45.74;100874.23;103612;1253;138269;-68
2023/05/13 02:06:27;;;;;;;20.50;12.30;;;;;;;11.71;46.10;100873.58;103858;1253;97158;-65
2023/05/13 02:08:54;;;;;;;18.80;11.70;;;;;;;11.70;46.31;100870.65;104588;1253;138203;-66
2023/05/13 02:11:22;;;;;;;19.20;12.00;;;;;;;11.69;46.42;100878.52;104778;1252;95955;-66
2023/05/13 02:13:49;;;;;;;18.20;12.00;;;;;;;11.68;46.86;100878.38;104358;1253;110900;-66
2023/05/13 02:16:18;;;;;;;17.00;10.90;;;;;;;11.65;46.75;100873.55;103420;1253;138597;-65
2023/05/13 02:18:45;;;;;;;15.40;9.50;;;;;;;11.65;46.32;100874.25;103967;1253;97743;-66
2023/05/13 02:21:15;;;;;;;15.90;9.80;;;;;;;11.67;46.12;100874.38;103409;1253;137940;-66
2023/05/13 02:23:42;;;;;;;16.50;10.40;;;;;;;11.69;46.15;100879.05;103667;1257;97654;-66
2023/05/13 02:26:10;;;;;;;18.10;8.90;;;;;;;11.68;46.22;100885.86;103476;1253;138280;-66
2023/05/13 02:28:37;;;;;;;14.40;8.90;;;;;;;11.67;45.94;100887.96;103694;1253;106363;-66
2023/05/13 02:31:04;;;;;;;14.50;8.90;;;;;;;11.68;45.76;100891.97;103511;1253;97794;-66
2023/05/13 02:33:35;;;;;;;15.40;9.10;;;;;;;11.70;45.54;100894.33;103389;1252;138108;-65
2023/05/13 02:36:02;;;;;;;11.70;8.90;;;;;;;11.74;45.45;100890.22;103476;1253;97976;-66
2023/05/13 02:38:48;;;;;;;;;;;;;;;11.78;45.41;100887.52;103462;1253;138069;-66
2023/05/13 02:41:15;;;;;;;17.80;9.50;;;;;;;11.78;45.37;100885.77;103485;1252;107408;-66
2023/05/13 02:43:42;;;;;;;13.50;8.50;;;;;;;11.80;45.33;100882.60;103437;1253;97783;-67
2023/05/13 02:46:09;;;;;;;13.70;8.80;;;;;;;11.83;45.32;100875.73;103324;1253;138089;-66
2023/05/13 02:48:36;;;;;;;16.50;9.60;;;;;;;11.85;45.59;100874.45;103513;1252;97874;-66
2023/05/13 02:51:03;;;;;;;13.70;9.70;;;;;;;11.87;45.80;100877.38;103394;1253;137838;-67
2023/05/13 02:53:31;;;;;;;16.40;10.50;;;;;;;11.88;46.13;100880.30;103547;1253;108494;-66
2023/05/13 02:56:01;;;;;;;17.00;9.50;;;;;;;11.88;45.57;100884.31;103492;1252;97782;-67
2023/05/13 02:58:28;;;;;;;19.80;9.30;;;;;;;11.91;45.93;100888.77;103431;1253;137918;-67
2023/05/13 03:00:56;;;;;;;17.50;9.70;;;;;;;11.92;46.03;100891.86;103540;1253;97797;-66
2023/05/13 03:03:23;;;;;;;12.90;9.00;;;;;;;11.92;46.01;100891.86;103418;1253;137872;-67
2023/05/13 03:05:51;;;;;;;13.70;9.40;;;;;;;11.91;45.72;100888.05;103637;1254;106252;-67
2023/05/13 03:08:18;;;;;;;12.00;9.30;;;;;;;11.93;45.83;100880.52;103387;1253;138267;-67
2023/05/13 03:10:45;;;;;;;19.00;11.20;;;;;;;11.95;46.32;100880.29;103491;1253;108306;-66
2023/05/13 03:13:12;;;;;;;22.60;11.40;;;;;;;11.96;46.87;100878.67;103447;1253;98703;-66
2023/05/13 03:15:39;;;;;;;18.50;11.20;;;;;;;11.96;47.03;100886.69;103415;1254;137994;-66
2023/05/13 03:18:10;;;;;;;23.30;12.40;;;;;;;11.97;47.80;100885.61;103389;1253;107372;-66
2023/05/13 03:20:37;;;;;;;18.30;11.80;;;;;;;11.97;48.05;100884.05;103431;1253;139400;-66
2023/05/13 03:23:04;;;;;;;22.70;12.20;;;;;;;11.97;48.14;100887.54;103501;1252;108122;-66
2023/05/13 03:25:32;;;;;;;19.90;13.90;;;;;;;11.97;48.17;100890.32;103542;1253;97853;-66
2023/05/13 03:27:59;;;;;;;20.50;13.10;;;;;;;11.97;48.41;100890.66;103407;1253;137969;-66
2023/05/13 03:30:29;;;;;;;19.50;12.80;;;;;;;11.97;48.48;100881.27;103473;1254;108676;-66
2023/05/13 03:33:03;;;;;;;22.50;14.50;;;;;;;11.97;48.72;100878.98;103845;1253;138803;-66
2023/05/13 03:35:30;;;;;;;20.20;14.20;;;;;;;11.97;48.46;100875.66;103465;1253;108241;-66
2023/05/13 03:37:58;;;;;;;23.70;13.50;;;;;;;11.98;48.61;100876.71;103545;1252;97871;-66
2023/05/13 03:40:25;;;;;;;22.00;13.90;;;;;;;12.01;48.73;100883.59;104037;1252;137792;-66
2023/05/13 03:42:53;;;;;;;22.90;13.90;;;;;;;12.04;48.84;100876.02;103497;1253;107855;-66
2023/05/13 03:45:21;;;;;;;27.40;14.50;;;;;;;12.06;49.14;100876.16;103355;1253;138238;-67
2023/05/13 03:47:51;;;;;;;20.90;13.70;;;;;;;12.08;49.13;100882.52;103548;1253;107722;-66
2023/05/13 03:50:18;;;;;;;26.60;14.10;;;;;;;12.11;49.38;100886.10;103570;1253;138491;-66
2023/05/13 03:52:46;;;;;;;22.90;13.80;;;;;;;12.12;49.51;100889.58;103418;1256;111869;-66
2023/05/13 03:55:14;;;;;;;22.80;14.10;;;;;;;12.13;49.31;100891.45;104501;1256;107710;-66
2023/05/13 03:57:42;;;;;;;26.50;14.00;;;;;;;12.14;49.37;100890.73;103416;1253;138226;-66
2023/05/13 04:00:13;;;;;;;22.80;14.00;;;;;;;12.14;49.45;100893.33;104040;1256;107061;-66
2023/05/13 04:02:42;;;;;;;22.50;13.80;;;;;;;12.15;49.53;100893.66;103557;1253;139632;-66
2023/05/13 04:05:13;;;;;;;23.20;13.90;;;;;;;12.16;49.49;100894.16;103633;1252;110284;-66
2023/05/13 04:07:40;;;;;;;26.60;14.40;;;;;;;12.18;49.80;100895.49;103849;1253;107215;-66
2023/05/13 04:10:10;;;;;;;21.20;14.40;;;;;;;12.20;49.68;100896.11;103423;1253;139102;-66
2023/05/13 04:12:43;;;;;;;21.90;14.40;;;;;;;12.23;49.67;100901.64;103860;1251;108330;-66
2023/05/13 04:15:13;;;;;;;20.50;13.70;;;;;;;12.27;49.86;100898.89;103392;1252;138172;-67
2023/05/13 04:17:42;;;;;;;22.50;14.40;;;;;;;12.32;49.89;100899.44;104494;1253;111610;-67
2023/05/13 04:20:12;;;;;;;23.20;14.70;;;;;;;12.38;49.76;100899.96;103407;1253;138313;-67
2023/05/13 04:22:39;;;;;;;22.70;14.70;;;;;;;12.44;49.58;100897.70;104022;1253;97955;-67
2023/05/13 04:25:07;;;;;;;23.00;14.80;;;;;;;12.54;49.49;100897.58;103553;1253;107527;-67
2023/05/13 04:27:34;;;;;;;22.50;13.90;;;;;;;12.64;49.51;100897.44;104399;1253;138783;-66
2023/05/13 04:30:10;;;;;;;20.50;15.00;;;;;;;12.74;49.39;100899.07;103502;1253;110814;-66
2023/05/13 04:32:38;;;;;;;22.80;14.60;;;;;;;12.85;49.32;100903.77;104541;1256;138712;-67
2023/05/13 04:35:08;;;;;;;23.50;14.80;;;;;;;13.00;49.28;100909.77;103642;1257;97847;-66
2023/05/13 04:37:45;;;;;;;20.20;13.80;;;;;;;13.20;48.84;100911.77;103726;1252;107671;-67
2023/05/13 04:40:15;;;;;;;23.90;14.40;;;;;;;13.42;48.65;100911.23;103286;1253;138609;-66
2023/05/13 04:42:42;;;;;;;23.70;13.90;;;;;;;13.65;48.56;100909.94;103526;1253;112087;-66
2023/05/13 04:45:13;;;;;;;22.00;14.60;;;;;;;13.89;48.40;100914.85;103333;1253;138362;-67
2023/05/13 04:47:40;;;;;;;21.80;15.20;;;;;;;14.12;48.22;100912.65;103480;1253;98089;-66
2023/05/13 04:50:09;;;;;;;23.70;14.60;;;;;;;14.33;47.84;100914.31;103519;1253;106900;-66
2023/05/13 04:52:37;;;;;;;23.40;14.80;;;;;;;14.51;47.52;100919.10;103814;1253;97877;-67
2023/05/13 04:55:05;;;;;;;24.30;14.50;;;;;;;14.61;47.23;100920.30;103419;1253;112198;-66
2023/05/13 04:57:32;;;;;;;25.00;15.50;;;;;;;14.69;47.06;100926.98;103173;1258;138525;-66
2023/05/13 05:00:02;;;;;;;20.40;14.80;;;;;;;14.74;46.98;100927.14;103408;1257;97779;-66
2023/05/13 05:02:31;;;;;;;22.30;14.40;;;;;;;14.79;46.89;100928.36;103200;1254;138815;-66
2023/05/13 05:04:59;;;;;;;25.20;14.60;;;;;;;14.86;46.68;100933.84;103362;1256;97795;-66
2023/05/13 05:07:26;;;;;;;21.70;14.70;;;;;;;14.99;46.63;100937.55;103296;1253;111981;-68
2023/05/13 05:09:56;;;;;;;19.00;13.80;;;;;;;15.27;46.64;100936.08;103244;1253;138457;-66
2023/05/13 05:12:24;;;;;;;23.70;13.80;;;;;;;15.69;46.64;100932.42;103803;1253;97829;-67
2023/05/13 05:14:52;;;;;;;21.30;13.90;;;;;;;16.24;46.18;100929.51;103195;1253;137944;-67
2023/05/13 05:17:19;;;;;;;18.40;13.40;;;;;;;16.77;45.37;100926.73;103422;1253;98041;-67
2023/05/13 05:19:47;;;;;;;25.40;13.80;;;;;;;17.28;44.72;100923.75;103357;1253;111986;-66
2023/05/13 05:22:14;;;;;;;22.80;13.10;;;;;;;17.77;44.03;100921.69;103229;1257;138167;-67
2023/05/13 05:24:41;;;;;;;21.50;14.00;;;;;;;18.14;43.73;100911.82;103446;1257;97772;-67
2023/05/13 05:27:08;;;;;;;27.00;14.10;;;;;;;18.73;43.27;100904.89;103397;1256;138037;-67
2023/05/13 05:29:36;;;;;;;24.80;13.20;;;;;;;20.75;42.02;100901.42;103337;1258;97800;-67
2023/05/13 05:32:04;;;;;;;23.60;13.30;;;;;;;23.15;39.50;100895.11;104186;1253;110899;-68
2023/05/13 05:34:31;;;;;;;24.10;13.10;;;;;;;25.31;36.48;100895.90;103813;1253;108487;-67
2023/05/13 05:36:59;;;;;;;23.80;12.00;;;;;;;27.22;33.49;100898.89;103301;1253;97897;-67
2023/05/13 05:39:26;;;;;;;19.80;11.70;;;;;;;28.43;31.19;100898.45;103286;1254;138253;-67
2023/05/13 05:41:54;;;;;;;20.60;11.80;;;;;;;29.76;29.96;100897.10;103415;1253;97812;-68
2023/05/13 05:44:22;;;;;;;20.70;12.10;;;;;;;31.14;28.15;100887.36;103234;1253;138265;-69
2023/05/13 05:46:51;;;;;;;20.20;11.90;;;;;;;32.02;26.39;100888.05;103423;1253;107265;-69
2023/05/13 05:49:18;;;;;;;18.00;11.20;;;;;;;31.65;25.53;100888.81;103386;1253;97806;-67
2023/05/13 05:51:47;;;;;;;17.50;11.00;;;;;;;31.99;25.39;100894.50;104122;1257;138349;-69
2023/05/13 05:54:15;;;;;;;22.80;11.40;;;;;;;32.87;24.37;100889.86;103523;1253;97762;-67
2023/05/13 05:56:41;;;;;;;16.20;11.30;;;;;;;33.86;23.63;100888.38;103375;1253;138300;-69
2023/05/13 05:59:09;;;;;;;18.80;10.50;;;;;;;35.03;22.71;100880.54;103246;1258;99443;-69
2023/05/13 06:01:36;;;;;;;14.70;10.10;;;;;;;36.18;22.00;100878.99;103421;1253;97695;-67
2023/05/13 06:04:03;;;;;;;16.40;9.20;;;;;;;37.20;21.05;100879.83;103209;1253;283277;-68
2023/05/13 06:06:31;;;;;;;15.30;8.90;;;;;;;37.96;19.95;100878.25;104573;1259;95965;-68
2023/05/13 06:08:58;;;;;;;18.70;9.20;;;;;;;38.57;19.43;100871.52;103377;1253;137827;-68
2023/05/13 06:11:26;;;;;;;15.00;8.90;;;;;;;39.26;18.69;100869.59;103727;1253;100080;-68
2023/05/13 06:13:56;;;;;;;13.60;8.10;;;;;;;39.89;17.92;100869.48;103364;1258;97832;-68
2023/05/13 06:16:23;;;;;;;16.80;8.20;;;;;;;40.54;17.10;100871.14;103251;1255;137682;-68
2023/05/13 06:18:50;;;;;;;20.90;8.60;;;;;;;41.21;16.71;100870.52;103508;1256;97810;-68
2023/05/13 06:21:17;;;;;;;16.60;8.10;;;;;;;41.83;16.21;100873.93;103438;1253;137722;-68
2023/05/13 06:23:47;;;;;;;12.90;7.20;;;;;;;42.30;15.62;100878.11;103289;1253;99023;-68
2023/05/13 06:26:14;;;;;;;14.40;6.40;;;;;;;42.82;14.79;100873.20;103134;1253;137993;-68
2023/05/13 06:28:41;;;;;;;12.50;6.50;;;;;;;43.35;13.99;100869.81;103269;1259;108350;-68
2023/05/13 06:31:08;;;;;;;15.20;7.50;;;;;;;43.61;13.50;100870.61;103265;1254;97801;-68
2023/05/13 06:33:36;;;;;;;18.30;7.80;;;;;;;43.71;13.12;100873.35;104244;1253;137992;-68
2023/05/13 06:36:03;;;;;;;9.20;6.30;;;;;;;43.86;12.92;100877.34;103323;1254;98839;-69
2023/05/13 06:38:30;;;;;;;10.80;6.60;;;;;;;44.16;12.71;100877.83;103269;1256;137907;-68
2023/05/13 06:40:58;;;;;;;15.50;6.00;;;;;;;44.38;12.48;100878.13;103430;1253;100386;-68
2023/05/13 06:43:29;;;;;;;10.80;5.70;;;;;;;44.36;12.21;100879.21;103433;1256;97919;-68
2023/05/13 06:45:58;;;;;;;11.20;5.90;;;;;;;44.32;12.11;100878.24;103296;1253;137603;-68
2023/05/13 06:48:27;;;;;;;17.60;6.50;;;;;;;44.58;12.19;100878.32;103283;1253;107737;-68
2023/05/13 06:50:54;;;;;;;13.80;6.80;;;;;;;44.89;11.90;100876.77;103213;1258;137785;-67
2023/05/13 06:53:21;;;;;;;15.70;6.40;;;;;;;45.20;12.00;100876.29;103446;1253;100209;-67
2023/05/13 06:55:48;;;;;;;12.20;5.90;;;;;;;45.28;11.67;100878.36;103458;1256;97669;-67
2023/05/13 06:58:16;;;;;;;13.00;6.20;;;;;;;45.50;11.50;100875.36;103390;1253;137671;-68
2023/05/13 07:00:45;;;;;;;12.40;6.30;;;;;;;45.60;11.41;100873.92;103477;1253;100722;-68
2023/05/13 07:03:12;;;;;;;12.10;5.30;;;;;;;45.67;11.12;100874.44;103358;1256;137825;-68
2023/05/13 07:05:40;;;;;;;6.30;4.60;;;;;;;45.76;10.72;100873.11;103550;1256;100075;-68
2023/05/13 07:08:07;;;;;;;11.50;5.10;;;;;;;45.87;10.47;100869.77;103536;1254;97803;-68
2023/05/13 07:10:35;;;;;;;9.70;4.90;;;;;;;46.02;10.46;100874.36;103522;1252;103733;-69
2023/05/13 07:13:03;;;;;;;10.60;4.30;;;;;;;46.10;10.28;100872.31;103487;1254;108030;-68
2023/05/13 07:15:30;;;;;;;10.40;4.50;;;;;;;46.05;10.07;100873.63;103292;1250;138860;-68
2023/05/13 07:17:57;;;;;;;9.00;4.40;;;;;;;45.98;9.84;100871.48;103474;1254;99580;-68
2023/05/13 07:20:25;;;;;;;12.70;4.40;;;;;;;45.97;10.24;100872.19;103424;1253;137454;-68
2023/05/13 07:22:53;;;;;;;8.60;3.80;;;;;;;46.05;10.09;100874.02;103569;1254;102260;-68
2023/05/13 07:25:20;;;;;;;8.50;3.40;;;;;;;45.82;9.23;100869.79;103669;1254;100409;-68
2023/05/13 07:27:47;;;;;;;8.40;3.40;;;;;;;45.55;9.35;100868.83;103405;1256;137558;-67
2023/05/13 07:30:16;;;;;;;9.50;3.60;;;;;;;45.67;9.85;100870.85;103447;1256;98468;-67
2023/05/13 07:32:43;;;;;;;7.20;3.50;;;;;;;45.88;9.67;100872.46;104182;1256;137437;-67
2023/05/13 07:35:11;;;;;;;4.70;3.00;;;;;;;45.96;9.31;100871.67;103537;1252;103311;-67
2023/05/13 07:37:38;;;;;;;7.50;3.10;;;;;;;45.89;9.12;100869.71;104825;1253;98489;-68
2023/05/13 07:40:07;;;;;;;5.40;3.10;;;;;;;45.93;9.51;100867.87;104630;1256;137168;-67
2023/05/13 07:42:34;;;;;;;7.30;3.10;;;;;;;46.07;9.47;100868.27;103845;1253;100884;-68
2023/05/13 07:45:02;;;;;;;6.00;3.00;;;;;;;46.14;9.14;100869.58;103407;1254;137750;-67
2023/05/13 07:47:30;;;;;;;5.20;2.90;;;;;;;46.03;8.70;100864.77;103573;1254;103876;-68
2023/05/13 07:49:57;;;;;;;9.10;3.20;;;;;;;45.78;8.04;100864.31;103472;1254;99595;-68
2023/05/13 07:52:25;;;;;;;8.20;2.90;;;;;;;45.30;8.45;100861.88;103380;1253;137193;-68
2023/05/13 07:54:52;;;;;;;6.10;2.80;;;;;;;44.65;8.71;100860.34;103470;1254;101064;-68
2023/05/13 07:57:19;;;;;;;7.50;3.20;;;;;;;44.39;9.05;100859.84;104725;1253;137588;-68
2023/05/13 07:59:46;;;;;;;8.10;3.00;;;;;;;44.48;9.26;100857.69;104579;1253;103804;-69
2023/05/13 08:02:14;;;;;;;6.70;3.20;;;;;;;44.49;9.22;100855.88;103319;1254;137722;-69
2023/05/13 08:04:41;;;;;;;6.70;3.40;;;;;;;44.43;9.22;100855.47;104893;1252;95890;-67
2023/05/13 08:07:10;;;;;;;5.60;3.30;;;;;;;44.30;9.23;100854.67;104830;1251;99349;-69
2023/05/13 08:09:36;;;;;;;9.00;3.80;;;;;;;44.18;9.03;100854.75;104768;1252;138589;-69
2023/05/13 08:12:05;;;;;;;4.80;3.40;;;;;;;43.94;9.11;100850.79;104003;1256;103273;-69
2023/05/13 08:14:32;;;;;;;3.40;3.00;;;;;;;43.67;9.19;100851.79;103338;1253;138216;-69
2023/05/13 08:16:59;;;;;;;8.80;3.30;;;;;;;43.27;9.16;100849.95;103460;1254;97788;-68
2023/05/13 08:19:27;;;;;;;8.20;3.40;;;;;;;42.96;9.35;100849.48;103458;1256;100984;-68
2023/05/13 08:21:54;;;;;;;8.60;3.50;;;;;;;42.68;9.69;100847.27;103379;1253;137895;-68
2023/05/13 08:24:21;;;;;;;8.80;3.10;;;;;;;42.42;9.34;100855.64;103461;1256;104449;-67
2023/05/13 08:26:48;;;;;;;4.10;3.00;;;;;;;41.68;9.55;100847.90;103335;1255;137840;-69
2023/05/13 08:29:15;;;;;;;8.00;3.10;;;;;;;41.18;9.75;100848.57;103545;1254;97796;-68
2023/05/13 08:31:42;;;;;;;9.80;3.50;;;;;;;40.97;10.30;100853.33;103521;1254;100264;-68
2023/05/13 08:34:09;;;;;;;6.70;3.40;;;;;;;40.77;9.77;100847.92;103416;1256;137569;-67
2023/05/13 08:36:36;;;;;;;5.10;3.10;;;;;;;40.18;9.57;100849.66;103480;1253;103744;-68
2023/05/13 08:39:04;;;;;;;5.00;2.90;;;;;;;39.66;10.12;100846.45;103307;1253;137508;-68
2023/05/13 08:41:32;;;;;;;4.80;2.60;;;;;;;39.13;9.90;100846.42;103856;1256;97877;-68
2023/05/13 08:44:00;;;;;;;7.80;3.00;;;;;;;38.26;10.18;100849.96;103527;1256;99878;-68
2023/05/13 08:46:30;;;;;;;6.40;2.70;;;;;;;37.90;10.39;100854.41;103738;1256;137901;-68
2023/05/13 08:48:58;;;;;;;3.50;2.10;;;;;;;37.35;10.25;100853.40;103610;1253;102718;-69
2023/05/13 08:51:25;;;;;;;6.90;2.50;;;;;;;36.44;10.52;100853.43;103479;1256;138553;-69
2023/05/13 08:53:53;;;;;;;5.10;2.30;;;;;;;35.51;10.93;100856.41;103540;1256;97847;-69
2023/05/13 08:56:24;;;;;;;5.30;2.50;;;;;;;34.72;11.38;100860.98;103358;1254;139269;-69
2023/05/13 08:58:51;;;;;;;8.50;2.90;;;;;;;34.29;11.88;100853.50;104172;1253;97756;-69
2023/05/13 09:01:18;;;;;;;3.80;2.20;;;;;;;33.80;11.88;100851.42;103571;1256;104554;-69
2023/05/13 09:03:56;;;;;;;5.10;2.30;;;;;;;33.23;12.45;100847.05;103831;1252;137843;-69
2023/05/13 09:06:23;;;;;;;4.80;2.70;;;;;;;33.06;12.95;100845.25;103961;1254;97799;-68
2023/05/13 09:08:50;;;;;;;4.20;2.60;;;;;;;33.15;13.23;100841.37;103566;1253;138419;-68
2023/05/13 09:11:18;;;;;;;7.10;2.40;;;;;;;33.42;13.00;100841.89;103502;1257;97795;-69
2023/05/13 09:13:45;;;;;;;6.90;2.10;;;;;;;33.70;12.65;100846.64;104117;1256;103271;-69
2023/05/13 09:16:14;;;;;;;7.80;2.20;;;;;;;33.65;12.11;100857.33;103387;1254;138182;-69
2023/05/13 09:18:43;;;;;;;4.20;2.20;;;;;;;32.79;12.11;100846.44;104759;1254;95651;-68
2023/05/13 09:21:27;;;;;;;6.10;2.00;;;;;;;31.80;12.50;100844.28;104720;1253;137619;-68
2023/05/13 09:24:05;;;;;;;4.00;1.80;;;;;;;31.45;12.87;100840.46;104207;1254;97833;-68
2023/05/13 09:26:36;;;;;;;5.40;1.70;;;;;;;31.37;12.99;100837.84;104270;1254;137803;-68
2023/05/13 09:29:21;;;;;;;5.70;1.90;;;;;;;30.74;12.88;100844.00;103377;1253;106757;-69
2023/05/13 09:31:51;;;;;;;9.40;1.90;;;;;;;30.23;13.38;100832.73;104798;1255;95591;-69
2023/05/13 09:34:26;;;;;;;9.40;2.50;;;;;;;30.45;13.58;100830.17;103792;1254;136522;-69
2023/05/13 09:36:59;;;;;;;6.30;1.80;;;;;;;30.23;13.66;100827.20;103392;1253;97677;-68
2023/05/13 09:39:26;;;;;;;3.50;1.90;;;;;;;30.06;13.94;100829.46;103304;1256;137601;-68
2023/05/13 09:41:54;;;;;;;5.80;2.00;;;;;;;29.89;13.91;100837.02;103416;1255;107714;-68
2023/05/13 09:44:21;;;;;;;2.50;1.80;;;;;;;29.79;13.95;100835.00;103408;1256;139140;-70
2023/05/13 09:46:50;;;;;;;6.80;2.00;;;;;;;29.68;14.07;100824.91;103711;1256;108932;-68
2023/05/13 09:49:17;;;;;;;2.80;1.80;;;;;;;29.24;14.46;100827.18;103303;1254;97679;-68
2023/05/13 09:51:46;;;;;;;6.70;2.20;;;;;;;28.62;14.66;100826.60;103402;1254;137698;-68
2023/05/13 09:54:13;;;;;;;4.10;1.90;;;;;;;27.65;15.09;100832.93;103479;1256;107807;-68
2023/05/13 09:56:40;;;;;;;5.50;2.20;;;;;;;27.19;15.45;100825.13;103455;1254;138810;-68
2023/05/13 09:59:07;;;;;;;4.70;2.20;;;;;;;26.76;15.71;100817.86;103473;1254;108700;-69
2023/05/13 10:01:36;;;;;;;7.70;2.30;;;;;;;26.36;16.08;100818.02;103379;1256;97781;-68
2023/05/13 10:04:05;;;;;;;2.90;2.00;;;;;;;25.92;16.67;100812.49;103454;1256;138074;-67
2023/05/13 10:06:33;;;;;;;4.10;2.20;;;;;;;26.04;16.66;100808.81;103588;1254;107385;-68
2023/05/13 10:09:03;;;;;;;2.60;1.80;;;;;;;26.40;16.68;100812.02;103428;1254;137827;-69
2023/05/13 10:11:33;;;;;;;5.50;2.40;;;;;;;26.56;16.68;100815.77;103413;1255;108399;-68
2023/05/13 10:14:04;;;;;;;4.80;2.10;;;;;;;26.57;16.38;100824.95;103436;1256;97588;-68
2023/05/13 10:16:33;;;;;;;4.70;2.20;;;;;;;26.59;16.57;100814.46;103350;1254;137542;-70
2023/05/13 10:19:01;;;;;;;6.00;2.10;;;;;;;26.27;16.71;100810.67;103476;1256;108390;-68
2023/05/13 10:21:28;;;;;;;3.30;2.20;;;;;;;25.74;17.29;100805.86;104002;1256;139228;-68
2023/05/13 10:23:58;;;;;;;4.40;2.20;;;;;;;25.69;17.67;100804.77;103568;1256;108442;-68
2023/05/13 10:26:25;;;;;;;4.60;2.30;;;;;;;25.85;17.80;100814.40;103794;1255;138182;-69
2023/05/13 10:28:54;;;;;;;5.40;2.20;;;;;;;26.07;17.69;100809.79;103642;1256;111536;-69
2023/05/13 10:31:21;;;;;;;8.80;2.50;;;;;;;26.28;17.84;100807.23;104307;1254;108244;-68
2023/05/13 10:33:48;;;;;;;7.10;2.30;;;;;;;26.32;17.83;100801.86;104738;1254;137707;-68
2023/05/13 10:36:34;;;;;;;5.00;2.50;;;;;;;26.39;17.87;100803.39;104722;1256;107900;-68
2023/05/13 10:39:06;;;;;;;;;;;;;;;26.31;17.81;100797.48;103920;1258;139201;-69
2023/05/13 10:42:08;;;;;;;4.50;2.70;;;;;;;26.37;18.07;100794.80;103980;1256;110539;-68
2023/05/13 10:44:35;;;;;;;4.10;2.40;;;;;;;26.54;18.11;100801.34;104331;1254;138952;-69
2023/05/13 10:47:03;;;;;;;4.30;2.50;;;;;;;26.43;18.08;100798.39;104539;1253;96245;-68
2023/05/13 10:49:36;;;;;;;4.80;2.30;;;;;;;26.37;18.19;100799.31;103835;1257;108636;-68
2023/05/13 10:52:08;;;;;;;7.40;2.50;;;;;;;26.21;18.08;100805.89;103866;1257;137775;-68
2023/05/13 10:54:40;;;;;;;3.90;2.10;;;;;;;25.74;18.25;100798.38;104838;1253;111775;-69
2023/05/13 10:57:08;;;;;;;5.60;2.40;;;;;;;25.54;18.46;100796.23;103431;1257;137898;-68
2023/05/13 10:59:37;;;;;;;7.20;2.50;;;;;;;25.27;18.65;100796.27;104224;1254;96353;-68
2023/05/13 11:02:21;;;;;;;6.60;2.40;;;;;;;25.16;18.84;100800.75;103521;1254;110408;-68
2023/05/13 11:05:00;;;;;;;4.20;2.10;;;;;;;25.14;18.98;100790.77;103633;1257;97748;-67
2023/05/13 11:07:30;;;;;;;3.10;2.40;;;;;;;25.02;18.80;100802.44;103670;1254;111183;-69
2023/05/13 11:09:57;;;;;;;3.00;2.20;;;;;;;24.93;18.69;100794.44;103259;1259;137872;-67
2023/05/13 11:12:24;;;;;;;5.90;1.80;;;;;;;24.67;18.90;100789.52;103558;1256;97832;-66